Archie, Louisiana
Current Conditions -  °F | °C
As of 5:01 AM on Sunday 21 Dec 2014 (Local Time) from KESF Reporting Station
Scattered Clouds Scattered Clouds  
Wind Chill: 34°   Ceiling: Unl
Heat Index: 34°   Visibility: 10mi
Dew Point: 33°   Wind: 0mph
Humidity: 96%   Direction: NA
Pressure: 30.13"   Gusts: NA
Location:  31.5028°N, 91.9028°W
Report Text: KESF 211101Z AUTO 00000KT 10SM SCT002 01/01 A3013 RMK AO2 T00110006
Loading
Personal Weather Stations






























Interactive Weather Map New forecast layout! Learn more

10-Day Weather Forecast

Advertisements
Track Severe Weather on mobile